FRA weather

Frankfurt am Main International Airport
Frankfurt-am-Main, Hesse, Germany

Public forecast

Using degrees Celsius for public forecast. Weather courtesy of forecast.io.

METAR (pilot weather report)

Retrieved 2017/01/20 05:20 UTC (18 minutes ago):

EDDF 200520Z 08007KT CAVOK M07/M11 Q1034 R88/0///95 NOSIG

TAF (pilot weather forecast)

Forecast is more than 12 hours old.

Retrieved 2017/01/19 00:28 UTC (1 day ago):

TAF EDDF 192300Z 2000/2106 04007KT CAVOK